createdAt,value
2018-11-29T00:01:42.928Z,17.10
2018-11-29T00:04:47.775Z,17.10
2018-11-29T00:07:52.705Z,17.50
2018-11-29T00:10:57.564Z,17.60
2018-11-29T00:14:02.634Z,16.60
2018-11-29T00:17:07.609Z,17.20
2018-11-29T00:20:21.770Z,17.80
2018-11-29T00:23:26.888Z,15.83
2018-11-29T00:26:31.740Z,17.45
2018-11-29T00:29:36.603Z,16.25
2018-11-29T00:32:41.429Z,16.00
2018-11-29T00:35:46.372Z,17.73
2018-11-29T00:38:51.214Z,17.50
2018-11-29T00:41:56.043Z,17.03
2018-11-29T00:45:00.892Z,17.30
2018-11-29T00:48:05.788Z,17.50
2018-11-29T00:51:10.645Z,17.60
2018-11-29T00:54:15.518Z,18.33
2018-11-29T00:57:20.470Z,17.27
2018-11-29T01:00:25.982Z,16.90
2018-11-29T01:03:30.823Z,16.70
2018-11-29T01:06:35.725Z,16.82
2018-11-29T01:09:40.723Z,16.12
2018-11-29T01:12:46.281Z,18.50
2018-11-29T01:15:51.252Z,17.53
2018-11-29T01:18:56.080Z,18.50
2018-11-29T01:22:00.974Z,17.15
2018-11-29T01:25:06.164Z,16.87
2018-11-29T01:28:11.114Z,17.50
2018-11-29T01:31:15.935Z,17.37
2018-11-29T01:34:20.804Z,17.10
2018-11-29T01:37:25.689Z,17.77
2018-11-29T01:40:30.528Z,18.40
2018-11-29T01:43:35.445Z,17.37
2018-11-29T01:46:40.324Z,17.77
2018-11-29T01:49:45.184Z,18.42
2018-11-29T01:52:50.084Z,18.02
2018-11-29T01:55:54.955Z,18.27
2018-11-29T01:58:59.867Z,17.40
2018-11-29T02:02:04.699Z,17.77
2018-11-29T02:05:13.018Z,18.00
2018-11-29T02:08:17.814Z,18.07
2018-11-29T02:11:22.643Z,16.87
2018-11-29T02:14:28.210Z,17.70
2018-11-29T02:17:33.108Z,17.77
2018-11-29T02:20:37.981Z,18.35
2018-11-29T02:23:42.850Z,17.77
2018-11-29T02:26:47.649Z,18.07
2018-11-29T02:29:52.504Z,17.53
2018-11-29T02:32:57.355Z,16.90
2018-11-29T02:36:02.228Z,17.37
2018-11-29T02:39:09.255Z,17.82
2018-11-29T02:42:14.159Z,16.57
2018-11-29T02:45:27.815Z,17.80
2018-11-29T02:48:32.766Z,18.67
2018-11-29T02:51:37.704Z,18.12
2018-11-29T02:54:42.583Z,17.65
2018-11-29T02:57:47.435Z,17.20
2018-11-29T03:00:52.294Z,17.80
2018-11-29T03:03:57.284Z,17.77
2018-11-29T03:07:02.136Z,19.67
2018-11-29T03:10:14.240Z,18.67
2018-11-29T03:13:19.100Z,18.90
2018-11-29T03:16:23.946Z,17.90
2018-11-29T03:19:28.798Z,17.77
2018-11-29T03:22:33.692Z,17.93
2018-11-29T03:25:38.643Z,17.20
2018-11-29T03:28:43.498Z,17.60
2018-11-29T03:31:49.095Z,19.30
2018-11-29T03:34:53.954Z,17.80
2018-11-29T03:37:58.764Z,17.60
2018-11-29T03:41:04.622Z,18.63
2018-11-29T03:44:09.427Z,18.07
2018-11-29T03:47:14.374Z,19.20
2018-11-29T03:50:19.574Z,16.00
2018-11-29T03:53:24.394Z,18.10
2018-11-29T03:56:29.260Z,17.27
2018-11-29T03:59:34.103Z,18.23
2018-11-29T04:02:39.002Z,17.97
2018-11-29T04:05:43.978Z,19.53
2018-11-29T04:08:48.800Z,17.53
2018-11-29T04:11:53.579Z,18.87
2018-11-29T04:14:58.393Z,18.10
2018-11-29T04:18:03.237Z,16.73
2018-11-29T04:21:08.122Z,17.33
2018-11-29T04:24:12.915Z,18.43
2018-11-29T04:27:17.790Z,18.03
2018-11-29T04:30:22.659Z,17.67
2018-11-29T04:33:27.635Z,16.25
2018-11-29T04:36:32.528Z,16.60
2018-11-29T04:39:37.365Z,17.10
2018-11-29T04:42:42.225Z,16.20
2018-11-29T04:46:32.878Z,18.67
2018-11-29T04:49:37.717Z,16.60
2018-11-29T04:52:42.539Z,16.80
2018-11-29T04:55:47.369Z,16.60
2018-11-29T04:58:52.198Z,17.73
2018-11-29T05:01:57.713Z,18.20
2018-11-29T05:05:02.543Z,17.42
2018-11-29T05:08:07.589Z,17.87
2018-11-29T05:11:12.598Z,16.82
2018-11-29T05:14:17.442Z,16.83
2018-11-29T05:17:22.298Z,16.87
2018-11-29T05:20:27.639Z,16.90
2018-11-29T05:23:32.483Z,16.63
2018-11-29T05:26:37.384Z,17.90
2018-11-29T05:29:42.299Z,18.97
2018-11-29T05:32:47.149Z,17.40
2018-11-29T05:35:51.994Z,18.70
2018-11-29T05:38:58.014Z,17.33
2018-11-29T05:42:02.967Z,17.13
2018-11-29T05:45:08.639Z,17.30
2018-11-29T05:48:13.448Z,18.50
2018-11-29T05:51:18.318Z,18.20
2018-11-29T05:54:23.135Z,16.67
2018-11-29T05:57:28.804Z,16.97
2018-11-29T06:00:33.832Z,17.00
2018-11-29T06:03:38.678Z,16.73
2018-11-29T06:06:43.544Z,17.67
2018-11-29T06:09:48.357Z,18.03
2018-11-29T06:12:53.305Z,17.50
2018-11-29T06:15:58.112Z,17.57
2018-11-29T06:19:02.969Z,17.40
2018-11-29T06:22:07.887Z,18.00
2018-11-29T06:25:12.947Z,17.57
2018-11-29T06:28:17.838Z,17.40
2018-11-29T06:31:23.055Z,17.47
2018-11-29T06:34:28.880Z,17.95
2018-11-29T06:37:33.799Z,18.30
2018-11-29T06:40:38.773Z,18.20
2018-11-29T06:43:43.728Z,19.50
2018-11-29T06:46:48.584Z,19.63
2018-11-29T06:49:53.424Z,18.63
2018-11-29T06:52:58.254Z,19.50
2018-11-29T06:56:03.094Z,18.65
2018-11-29T06:59:08.429Z,18.80
2018-11-29T07:02:13.299Z,18.47
2018-11-29T07:05:18.119Z,18.70
2018-11-29T07:08:23.184Z,19.97
2018-11-29T07:11:28.037Z,19.30
2018-11-29T07:14:32.867Z,20.07
2018-11-29T07:17:37.779Z,18.87
2018-11-29T07:20:42.616Z,17.70
2018-11-29T07:23:47.453Z,18.30
2018-11-29T07:26:52.298Z,17.80
2018-11-29T07:29:58.115Z,17.60
2018-11-29T07:33:02.972Z,17.82
2018-11-29T07:36:08.162Z,17.57
2018-11-29T07:39:13.021Z,18.77
2018-11-29T07:42:17.883Z,17.47
2018-11-29T07:45:22.950Z,18.23
2018-11-29T07:48:28.192Z,17.15
2018-11-29T07:51:33.077Z,16.60
2018-11-29T07:54:37.909Z,17.60
2018-11-29T07:57:42.837Z,17.30
2018-11-29T08:00:47.704Z,17.93
2018-11-29T08:03:52.571Z,17.93
2018-11-29T08:06:58.298Z,18.55
2018-11-29T08:10:03.231Z,18.55
2018-11-29T08:13:08.059Z,18.15
2018-11-29T08:16:12.851Z,16.50
2018-11-29T08:19:17.638Z,16.80
2018-11-29T08:22:22.549Z,17.30
2018-11-29T08:25:28.197Z,16.62
2018-11-29T08:28:33.037Z,17.83
2018-11-29T08:31:37.866Z,18.53
2018-11-29T08:34:42.671Z,17.17
2018-11-29T08:37:48.362Z,18.50
2018-11-29T08:40:53.385Z,18.17
2018-11-29T08:43:58.201Z,16.27
2018-11-29T08:47:03.116Z,17.97
2018-11-29T08:50:10.098Z,16.90
2018-11-29T08:53:15.038Z,18.80
2018-11-29T08:56:19.904Z,17.83
2018-11-29T08:59:24.742Z,18.07
2018-11-29T09:02:29.568Z,17.97
2018-11-29T09:05:34.438Z,19.10
2018-11-29T09:08:39.581Z,18.30
2018-11-29T09:11:45.390Z,16.70
2018-11-29T09:14:50.194Z,17.87
2018-11-29T09:17:55.087Z,17.70
2018-11-29T09:20:59.901Z,17.00
2018-11-29T09:24:04.817Z,17.13
2018-11-29T09:27:09.607Z,18.37
2018-11-29T09:30:15.669Z,16.47
2018-11-29T09:33:20.622Z,17.90
2018-11-29T09:36:25.459Z,17.17
2018-11-29T09:39:30.376Z,17.35
2018-11-29T09:42:35.223Z,15.80
2018-11-29T09:45:40.097Z,15.20
2018-11-29T09:48:44.918Z,16.10
2018-11-29T09:51:49.802Z,17.67
2018-11-29T09:54:54.633Z,16.67
2018-11-29T09:57:59.486Z,16.23
2018-11-29T10:01:04.381Z,17.33
2018-11-29T10:04:09.231Z,16.90
2018-11-29T10:07:14.038Z,16.43
2018-11-29T10:10:18.909Z,16.47
2018-11-29T10:13:23.801Z,14.90
2018-11-29T10:16:29.708Z,15.10
2018-11-29T10:19:34.523Z,16.60
2018-11-29T10:22:39.617Z,14.30
2018-11-29T10:25:44.448Z,15.37
2018-11-29T10:28:49.451Z,16.13
2018-11-29T10:31:54.761Z,14.67
2018-11-29T10:34:59.538Z,14.30
2018-11-29T10:38:04.401Z,14.70
2018-11-29T10:41:09.246Z,14.90
2018-11-29T10:44:14.246Z,14.77
2018-11-29T10:47:19.167Z,14.20
2018-11-29T10:50:24.132Z,15.00
2018-11-29T10:53:36.170Z,14.90
2018-11-29T10:56:35.561Z,12.23
2018-11-29T10:59:40.442Z,14.27
2018-11-29T11:03:02.732Z,13.93
2018-11-29T11:06:07.810Z,13.43
2018-11-29T11:09:12.901Z,15.13
2018-11-29T11:12:18.805Z,14.60
2018-11-29T11:15:23.892Z,14.53
2018-11-29T11:18:28.822Z,15.55
2018-11-29T11:21:33.664Z,14.43
2018-11-29T11:24:38.478Z,15.50
2018-11-29T11:27:43.350Z,14.67
2018-11-29T11:30:48.183Z,14.67
2018-11-29T11:33:53.026Z,15.53
2018-11-29T11:36:58.821Z,14.80
2018-11-29T11:40:03.735Z,14.90
2018-11-29T11:43:09.718Z,14.97
2018-11-29T11:46:14.727Z,13.60
2018-11-29T11:49:19.567Z,15.30
2018-11-29T11:52:26.802Z,16.03
2018-11-29T11:55:30.510Z,15.63
2018-11-29T11:58:35.422Z,14.80
2018-11-29T12:01:40.276Z,15.03
2018-11-29T12:04:48.607Z,14.10
2018-11-29T12:07:50.982Z,15.03
2018-11-29T12:10:55.846Z,14.80
2018-11-29T12:14:00.724Z,14.37
2018-11-29T12:17:05.563Z,14.63
2018-11-29T12:20:20.119Z,14.33
2018-11-29T12:23:25.093Z,14.55
2018-11-29T12:26:30.058Z,13.58
2018-11-29T12:29:34.989Z,13.90
2018-11-29T12:32:39.842Z,14.10
2018-11-29T12:35:44.747Z,14.00
2018-11-29T12:38:49.668Z,13.50
2018-11-29T12:41:54.474Z,12.90
2018-11-29T12:44:59.407Z,12.77
2018-11-29T12:48:04.318Z,13.40
2018-11-29T12:51:09.426Z,13.97
2018-11-29T12:54:14.409Z,13.43
2018-11-29T12:57:19.306Z,13.37
2018-11-29T13:00:25.521Z,13.13
2018-11-29T13:03:30.526Z,12.60
2018-11-29T13:06:35.573Z,13.22
2018-11-29T13:09:40.421Z,13.00
2018-11-29T13:12:45.377Z,12.73
2018-11-29T13:15:50.236Z,13.13
2018-11-29T13:18:55.061Z,13.83
2018-11-29T13:21:59.893Z,13.10
2018-11-29T13:25:04.973Z,12.27
2018-11-29T13:28:10.132Z,12.40
2018-11-29T13:31:15.020Z,12.63
2018-11-29T13:34:20.060Z,13.03
2018-11-29T13:37:25.080Z,13.20
2018-11-29T13:40:30.136Z,12.80
2018-11-29T13:43:34.980Z,14.33
2018-11-29T13:46:39.833Z,12.30
2018-11-29T13:49:44.652Z,12.85
2018-11-29T13:52:49.586Z,13.30
2018-11-29T13:55:54.530Z,12.27
2018-11-29T13:58:59.589Z,13.40
2018-11-29T14:02:04.462Z,13.10
2018-11-29T14:05:10.515Z,13.30
2018-11-29T14:08:15.385Z,13.30
2018-11-29T14:11:20.412Z,12.40
2018-11-29T14:14:25.316Z,12.37
2018-11-29T14:17:30.352Z,12.30
2018-11-29T14:20:35.541Z,13.80
2018-11-29T14:23:41.330Z,12.30
2018-11-29T14:26:46.209Z,12.40
2018-11-29T14:29:51.081Z,12.10
2018-11-29T14:32:57.628Z,11.17
2018-11-29T14:36:02.500Z,10.90
2018-11-29T14:39:08.630Z,11.60
2018-11-29T14:42:13.724Z,11.47
2018-11-29T14:45:22.541Z,10.60
2018-11-29T14:48:27.456Z,12.23
2018-11-29T14:51:32.427Z,11.23
2018-11-29T14:54:37.406Z,11.85
2018-11-29T14:57:42.284Z,10.50
2018-11-29T15:00:47.279Z,11.45
2018-11-29T15:03:53.006Z,10.53
2018-11-29T15:06:57.880Z,10.93
2018-11-29T15:10:02.702Z,11.40
2018-11-29T15:13:08.820Z,10.60
2018-11-29T15:16:13.717Z,10.97
2018-11-29T15:19:18.540Z,10.37
2018-11-29T15:22:23.494Z,10.30
2018-11-29T15:25:28.353Z,9.80
2018-11-29T15:28:33.169Z,10.90
2018-11-29T15:31:38.164Z,10.48
2018-11-29T15:34:42.995Z,10.25
2018-11-29T15:37:47.871Z,11.28
2018-11-29T15:40:52.802Z,11.90
2018-11-29T15:43:57.695Z,11.43
2018-11-29T15:47:02.550Z,10.83
2018-11-29T15:50:10.202Z,10.53
2018-11-29T15:53:15.172Z,10.97
2018-11-29T15:56:20.052Z,10.97
2018-11-29T15:59:24.997Z,9.33
2018-11-29T16:02:30.672Z,16.45
2018-11-29T16:05:35.627Z,10.47
2018-11-29T16:08:40.571Z,11.37
2018-11-29T16:11:45.528Z,10.10
2018-11-29T16:14:50.481Z,8.93
2018-11-29T16:17:55.469Z,9.90
2018-11-29T16:21:00.398Z,9.70
2018-11-29T16:24:05.371Z,8.60
2018-11-29T16:27:10.304Z,9.10
2018-11-29T16:30:20.805Z,8.43
2018-11-29T16:33:36.213Z,9.08
2018-11-29T16:36:41.075Z,8.70
2018-11-29T16:39:45.949Z,10.03
2018-11-29T16:42:50.942Z,10.00
2018-11-29T16:45:55.828Z,10.10
2018-11-29T16:49:02.888Z,9.80
2018-11-29T16:52:06.469Z,9.63
2018-11-29T16:55:12.198Z,10.23
2018-11-29T16:58:21.877Z,11.00
2018-11-29T17:01:26.674Z,10.40
2018-11-29T17:04:31.683Z,11.13
2018-11-29T17:07:36.519Z,10.50
2018-11-29T17:10:41.346Z,11.20
2018-11-29T17:13:46.211Z,12.67
2018-11-29T17:16:51.036Z,11.07
2018-11-29T17:19:55.919Z,14.40
2018-11-29T17:23:00.954Z,11.38
2018-11-29T17:26:05.793Z,11.68
2018-11-29T17:29:10.770Z,10.57
2018-11-29T17:32:15.741Z,10.87
2018-11-29T17:35:20.781Z,10.80
2018-11-29T17:38:25.648Z,11.10
2018-11-29T17:41:30.916Z,10.63
2018-11-29T17:44:35.740Z,11.15
2018-11-29T17:47:40.625Z,10.75
2018-11-29T17:50:46.073Z,9.88
2018-11-29T17:53:50.874Z,10.00
2018-11-29T17:56:55.743Z,8.47
2018-11-29T18:00:00.699Z,9.77
2018-11-29T18:03:06.184Z,10.43
2018-11-29T18:06:11.090Z,9.40
2018-11-29T18:09:16.028Z,9.80
2018-11-29T18:12:20.914Z,9.10
2018-11-29T18:15:30.820Z,8.63
2018-11-29T18:18:35.727Z,8.70
2018-11-29T18:21:41.464Z,9.33
2018-11-29T18:24:46.323Z,9.10
2018-11-29T18:27:52.236Z,9.77
2018-11-29T18:30:57.087Z,9.33
2018-11-29T18:34:01.994Z,11.10
2018-11-29T18:37:07.135Z,10.43
2018-11-29T18:40:21.710Z,9.50
2018-11-29T18:43:26.660Z,10.43
2018-11-29T18:46:31.538Z,8.77
2018-11-29T18:49:36.421Z,10.18
2018-11-29T18:52:41.298Z,10.27
2018-11-29T18:55:46.258Z,10.60
2018-11-29T18:58:51.142Z,9.63
2018-11-29T19:01:56.178Z,9.88
2018-11-29T19:05:01.158Z,10.80
2018-11-29T19:08:06.748Z,10.05
2018-11-29T19:11:11.555Z,9.50
2018-11-29T19:14:16.807Z,9.17
2018-11-29T19:17:25.112Z,8.90
2018-11-29T19:20:27.733Z,10.37
2018-11-29T19:23:32.625Z,9.00
2018-11-29T19:26:37.653Z,9.70
2018-11-29T19:29:42.499Z,8.53
2018-11-29T19:32:51.773Z,8.23
2018-11-29T19:35:57.153Z,9.33
2018-11-29T19:39:01.995Z,7.63
2018-11-29T19:42:06.871Z,8.20
2018-11-29T19:45:15.856Z,7.93
2018-11-29T19:48:20.817Z,8.33
2018-11-29T19:51:26.084Z,7.73
2018-11-29T19:54:31.304Z,7.55
2018-11-29T19:57:36.217Z,7.58
2018-11-29T20:00:41.632Z,7.10
2018-11-29T20:03:46.495Z,7.23
2018-11-29T20:06:51.594Z,7.63
2018-11-29T20:09:56.464Z,7.07
2018-11-29T20:13:07.645Z,7.25
2018-11-29T20:16:12.538Z,7.67
2018-11-29T20:19:17.434Z,6.97
2018-11-29T20:22:22.419Z,6.73
2018-11-29T20:25:27.837Z,7.23
2018-11-29T20:28:32.774Z,7.20
2018-11-29T20:31:37.597Z,7.40
2018-11-29T20:34:42.462Z,7.05
2018-11-29T20:37:47.687Z,7.00
2018-11-29T20:40:52.563Z,7.28
2018-11-29T20:43:57.412Z,6.80
2018-11-29T20:47:02.228Z,7.27
2018-11-29T20:50:07.857Z,7.00
2018-11-29T20:53:14.407Z,7.10
2018-11-29T20:56:19.532Z,7.37
2018-11-29T20:59:24.397Z,7.57
2018-11-29T21:02:29.251Z,7.20
2018-11-29T21:05:34.201Z,7.30
2018-11-29T21:08:39.153Z,7.65
2018-11-29T21:11:47.780Z,8.00
2018-11-29T21:14:49.924Z,8.03
2018-11-29T21:17:54.761Z,8.90
2018-11-29T21:20:59.666Z,7.93
2018-11-29T21:24:04.563Z,7.77
2018-11-29T21:27:09.543Z,8.33
2018-11-29T21:30:18.058Z,8.70
2018-11-29T21:33:22.934Z,7.60
2018-11-29T21:36:27.918Z,7.65
2018-11-29T21:39:32.851Z,8.47
2018-11-29T21:42:37.738Z,8.30
2018-11-29T21:45:42.614Z,8.43
2018-11-29T21:48:47.477Z,8.10
2018-11-29T21:51:52.308Z,8.23
2018-11-29T21:54:57.173Z,7.60
2018-11-29T21:58:02.088Z,8.00
2018-11-29T22:01:07.103Z,8.47
2018-11-29T22:04:12.028Z,7.60
2018-11-29T22:07:16.908Z,8.17
2018-11-29T22:10:21.718Z,8.50
2018-11-29T22:13:26.580Z,8.33
2018-11-29T22:16:31.872Z,8.10
2018-11-29T22:19:36.736Z,8.10
2018-11-29T22:22:41.683Z,8.80
2018-11-29T22:25:46.608Z,7.63
2018-11-29T22:28:51.440Z,7.70
2018-11-29T22:31:56.308Z,8.07
2018-11-29T22:35:01.208Z,7.40
2018-11-29T22:38:06.663Z,7.97
2018-11-29T22:41:11.626Z,8.07
2018-11-29T22:44:16.495Z,7.50
2018-11-29T22:47:21.535Z,8.40
2018-11-29T22:50:26.422Z,7.93
2018-11-29T22:53:31.790Z,8.53
2018-11-29T22:56:36.642Z,8.03
2018-11-29T22:59:41.528Z,8.00
2018-11-29T23:02:46.680Z,7.87
2018-11-29T23:05:51.752Z,7.93
2018-11-29T23:08:56.661Z,8.03
2018-11-29T23:12:01.490Z,8.40
2018-11-29T23:15:07.663Z,8.83
2018-11-29T23:18:12.596Z,9.10
2018-11-29T23:21:17.446Z,7.43
2018-11-29T23:24:22.345Z,7.83
2018-11-29T23:27:28.955Z,8.60
2018-11-29T23:30:33.864Z,9.70
2018-11-29T23:33:38.681Z,9.60
2018-11-29T23:36:43.686Z,8.30
2018-11-29T23:39:48.638Z,8.60
2018-11-29T23:42:53.465Z,8.97
2018-11-29T23:45:58.310Z,8.40
2018-11-29T23:49:03.182Z,8.10
2018-11-29T23:52:08.243Z,8.70
2018-11-29T23:55:14.649Z,8.13
2018-11-29T23:58:19.606Z,8.17
